Ikke nødvendig med spesiell oppmerksomhet.   -   Ingen advarsler for øyeblikket

METAR Rapporter

 

ENZV - Stavanger
Oppdatert: 22/08/2017 12:50
delvis skyet
delvis skyet
 Vind fra VNV
Vind: VNV 17 km/h
Temperatur: 15°C
Duggpunkt: 11°C
Fuktighet: 77%
Barometer: 1021 hPa
Skyet: delvis skyet
Sikt: 10 km
2017/08/22 10:50 ENZV 221050Z 29009KT 9999 FEW015 SCT020 15/11 Q1021 NOSIG
ENBR - Bergen
Oppdatert: 22/08/2017 12:50
Enkelte skyer
Enkelte skyer
 Vind fra VNV
Vind: VNV 6 km/h
Temperatur: 16°C
Duggpunkt: 11°C
Fuktighet: 72%
Barometer: 1021 hPa
Skyet: Enkelte skyer
Sikt: 10 km
2017/08/22 10:50 ENBR 221050Z 29003KT 250V320 9999 FEW021 16/11 Q1021 NOSIG RMK WIND 1200FT 31003KT
 
ENHD - Haugesund
Oppdatert: 22/08/2017 12:50
Enkelte skyer
Enkelte skyer
 Vind fra VNV
Vind: VNV 15 km/h
Temperatur: 16°C
Duggpunkt: 11°C
Fuktighet: 72%
Barometer: 1021 hPa
Skyet: Enkelte skyer
Sikt: 10 km
2017/08/22 10:50 ENHD 221050Z 30008KT 9999 FEW022 16/11 Q1021
ENCN - Kristiansand
Oppdatert: 22/08/2017 12:50
klart
klart
 Vind fra varies
Vind: varies 6 km/h
Temperatur: 20°C
Duggpunkt: 10°C
Fuktighet: 53%
Barometer: 1020 hPa
Oversikt: klart
Sikt: greater than 10 km
2017/08/22 10:50 ENCN 221050Z VRB03KT CAVOK 20/10 Q1020
 
ENBO - Bodø
Oppdatert: 22/08/2017 12:50
delvis skyet
delvis skyet
 Vind fra N
Vind: N 13 km/h
Temperatur: 11°C
Duggpunkt: 5°C
Fuktighet: 67%
Barometer: 1023 hPa
Skyet: delvis skyet
Sikt: 10 km
2017/08/22 10:50 ENBO 221050Z 01007KT 9999 FEW025 SCT040 11/05 Q1023 NOSIG
ENKR - Kirkenes
Oppdatert: 22/08/2017 12:50
delvis skyet
delvis skyet
 Vind fra N
Vind: N 7 km/h
Temperatur: 9°C
Vindkjøling: 8°C
Duggpunkt: 4°C
Fuktighet: 71%
Barometer: 1019 hPa
Skyet: delvis skyet
Sikt: 10 km
2017/08/22 10:50 ENKR 221050Z 35004KT 320V040 9999 FEW012 SCT022 09/04 Q1019 RMK WIND 731FT 36003KT
 
ENVA - Trondheim
Oppdatert: 22/08/2017 12:50
Light rain, showers, mostly cloudy
Light rain, showers, mostly cloudy
 Vind fra V
Vind: V 15 km/h
Temperatur: 12°C
Duggpunkt: 7°C
Fuktighet: 72%
Barometer: 1023 hPa
Oversikt: Light rain, showers
Skyet: hovedsaklig skyet
Sikt: 10 km
2017/08/22 10:50 ENVA 221050Z 28008KT 9999 -SHRA SCT023 SCT036TCU BKN052 12/07 Q1023 NOSIG RMK WIND 670FT 28008KT
ENGM - Oslo
Oppdatert: 22/08/2017 12:50
Enkelte skyer
Enkelte skyer
 Vind fra NNØ
Vind: NNØ 19 km/h
Temperatur: 14°C
Duggpunkt: 1°C
Fuktighet: 41%
Barometer: 1020 hPa
Skyet: Enkelte skyer
Sikt: 10 km
2017/08/22 10:50 ENGM 221050Z 03010KT 320V060 9999 FEW048 14/01 Q1020 NOSIG